createdAt,value
2019-01-25T00:03:52.634Z,100080.78
2019-01-25T00:08:55.266Z,100072.52
2019-01-25T00:13:57.843Z,100083.19
2019-01-25T00:19:00.517Z,100076.73
2019-01-25T00:24:03.612Z,100085.50
2019-01-25T00:29:06.267Z,100081.27
2019-01-25T00:34:08.904Z,100092.26
2019-01-25T00:39:11.580Z,100091.64
2019-01-25T00:44:14.333Z,100097.55
2019-01-25T00:49:16.810Z,100100.03
2019-01-25T00:54:19.438Z,100111.96
2019-01-25T00:59:21.988Z,100105.55
2019-01-25T01:04:24.445Z,100093.14
2019-01-25T01:09:26.996Z,100095.77
2019-01-25T01:14:29.585Z,100092.08
2019-01-25T01:19:32.105Z,100101.05
2019-01-25T01:24:34.657Z,100111.64
2019-01-25T01:29:37.394Z,100093.50
2019-01-25T01:34:40.002Z,100100.97
2019-01-25T01:39:42.561Z,100088.61
2019-01-25T01:44:45.260Z,100097.19
2019-01-25T01:49:47.908Z,100107.86
2019-01-25T01:54:50.435Z,100114.12
2019-01-25T01:59:53.121Z,100116.06
2019-01-25T02:04:55.570Z,100119.43
2019-01-25T02:09:58.026Z,100109.98
2019-01-25T02:15:00.551Z,100112.77
2019-01-25T02:20:04.802Z,100116.77
2019-01-25T02:25:07.690Z,100119.52
2019-01-25T02:30:13.457Z,100122.19
2019-01-25T02:35:16.632Z,100118.98
2019-01-25T02:40:21.595Z,100114.99
2019-01-25T02:45:24.197Z,100119.92
2019-01-25T02:50:26.761Z,100122.59
2019-01-25T02:55:29.433Z,100120.23
2019-01-25T03:00:31.962Z,100124.53
2019-01-25T03:05:34.515Z,100126.42
2019-01-25T03:10:37.306Z,100122.43
2019-01-25T03:15:39.894Z,100128.40
2019-01-25T03:20:42.618Z,100115.84
2019-01-25T03:25:45.219Z,100114.39
2019-01-25T03:30:47.652Z,100108.73
2019-01-25T03:35:50.633Z,100111.45
2019-01-25T03:40:55.118Z,100111.54
2019-01-25T03:45:57.805Z,100119.72
2019-01-25T03:51:00.424Z,100132.04
2019-01-25T03:56:03.447Z,100134.55
2019-01-25T04:01:06.080Z,100138.98
2019-01-25T04:06:08.582Z,100139.59
2019-01-25T04:11:11.130Z,100133.05
2019-01-25T04:16:13.675Z,100151.88
2019-01-25T04:21:16.278Z,100150.91
2019-01-25T04:26:18.820Z,100152.03
2019-01-25T04:31:21.276Z,100148.92
2019-01-25T04:36:23.810Z,100148.52
2019-01-25T04:41:26.381Z,100146.74
2019-01-25T04:46:28.960Z,100148.89
2019-01-25T04:51:31.525Z,100155.55
2019-01-25T04:56:37.335Z,100148.55
2019-01-25T05:01:39.839Z,100143.54
2019-01-25T05:06:42.475Z,100153.72
2019-01-25T05:11:44.974Z,100155.17
2019-01-25T05:16:47.564Z,100156.92
2019-01-25T05:21:50.151Z,100162.48
2019-01-25T05:26:57.449Z,100163.08
2019-01-25T05:32:04.555Z,100155.12
2019-01-25T05:37:11.236Z,100167.97
2019-01-25T05:42:13.703Z,100169.13
2019-01-25T05:47:16.330Z,100166.95
2019-01-25T05:52:20.180Z,100163.92
2019-01-25T05:57:22.679Z,100163.48
2019-01-25T06:02:25.284Z,100182.80
2019-01-25T06:07:27.940Z,100180.09
2019-01-25T06:12:30.365Z,100180.98
2019-01-25T06:17:32.895Z,100180.09
2019-01-25T06:22:35.600Z,100178.93
2019-01-25T06:27:38.561Z,100191.20
2019-01-25T06:32:41.206Z,100193.75
2019-01-25T06:37:43.799Z,100181.22
2019-01-25T06:42:46.231Z,100168.17
2019-01-25T06:47:48.916Z,100167.22
2019-01-25T06:52:51.469Z,100174.73
2019-01-25T06:58:08.889Z,100186.37
2019-01-25T07:03:11.549Z,100197.80
2019-01-25T07:08:16.896Z,100205.44
2019-01-25T07:13:19.358Z,100210.16
2019-01-25T07:18:21.999Z,100197.11
2019-01-25T07:23:24.394Z,100201.60
2019-01-25T07:28:27.086Z,100215.34
2019-01-25T07:33:29.609Z,100213.56
2019-01-25T07:38:32.515Z,100217.84
2019-01-25T07:43:35.141Z,100216.31
2019-01-25T07:48:38.635Z,100227.87
2019-01-25T07:53:41.355Z,100233.28
2019-01-25T07:58:43.962Z,100236.59
2019-01-25T08:03:46.614Z,100233.72
2019-01-25T08:08:49.253Z,100240.80
2019-01-25T08:13:51.946Z,100258.77
2019-01-25T08:18:54.435Z,100262.73
2019-01-25T08:23:56.944Z,100264.59
2019-01-25T08:28:59.513Z,100263.78
2019-01-25T08:34:02.094Z,100263.69
2019-01-25T08:39:08.315Z,100263.24
2019-01-25T08:44:10.915Z,100275.47
2019-01-25T08:49:13.425Z,100287.91
2019-01-25T08:54:16.154Z,100289.20
2019-01-25T08:59:18.826Z,100288.14
2019-01-25T09:04:21.514Z,100285.65
2019-01-25T09:09:24.062Z,100300.88
2019-01-25T09:14:26.550Z,100299.20
2019-01-25T09:19:29.143Z,100300.70
2019-01-25T09:24:31.652Z,100309.54
2019-01-25T09:29:34.149Z,100313.67
2019-01-25T09:34:36.684Z,100302.47
2019-01-25T09:39:39.284Z,100298.95
2019-01-25T09:44:41.934Z,100298.59
2019-01-25T09:49:45.574Z,100302.02
2019-01-25T09:54:48.202Z,100308.48
2019-01-25T09:59:50.814Z,100306.33
2019-01-25T10:04:54.065Z,100317.96
2019-01-25T10:09:56.738Z,100306.94
2019-01-25T10:14:59.424Z,100311.61
2019-01-25T10:20:01.987Z,100312.23
2019-01-25T10:25:05.795Z,100308.67
2019-01-25T10:30:11.734Z,100317.78
2019-01-25T10:35:14.380Z,100323.78
2019-01-25T10:40:17.979Z,100331.78
2019-01-25T10:45:24.813Z,100339.82
2019-01-25T10:50:28.458Z,100341.55
2019-01-25T10:55:31.104Z,100347.75
2019-01-25T11:00:33.920Z,100350.12
2019-01-25T11:05:36.581Z,100355.23
2019-01-25T11:10:39.036Z,100348.00
2019-01-25T11:15:41.506Z,100347.67
2019-01-25T11:20:44.114Z,100358.24
2019-01-25T11:25:46.670Z,100367.70
2019-01-25T11:30:49.522Z,100364.53
2019-01-25T11:35:52.174Z,100362.87
2019-01-25T11:40:54.722Z,100362.13
2019-01-25T11:45:57.490Z,100350.81
2019-01-25T11:51:00.959Z,100360.37
2019-01-25T11:56:04.155Z,100348.48
2019-01-25T12:01:06.945Z,100348.08
2019-01-25T12:06:09.691Z,100345.66
2019-01-25T12:11:12.459Z,100351.66
2019-01-25T12:16:15.054Z,100341.41
2019-01-25T12:21:17.794Z,100348.84
2019-01-25T12:26:20.654Z,100344.50
2019-01-25T12:31:23.319Z,100351.63
2019-01-25T12:36:25.779Z,100335.97
2019-01-25T12:41:28.584Z,100343.00
2019-01-25T12:46:32.129Z,100340.03
2019-01-25T12:51:42.799Z,100341.34
2019-01-25T12:56:45.480Z,100330.22
2019-01-25T13:01:49.944Z,100327.58
2019-01-25T13:06:52.474Z,100325.84
2019-01-25T13:11:54.924Z,100322.22
2019-01-25T13:16:57.706Z,100330.79
2019-01-25T13:22:00.342Z,100324.32
2019-01-25T13:27:03.154Z,100317.48
2019-01-25T13:32:05.710Z,100321.13
2019-01-25T13:37:08.335Z,100319.48
2019-01-25T13:42:11.416Z,100322.47
2019-01-25T13:47:13.954Z,100309.59
2019-01-25T13:52:16.714Z,100307.12
2019-01-25T13:57:19.656Z,100306.86
2019-01-25T14:02:22.355Z,100304.61
2019-01-25T14:07:24.927Z,100308.14
2019-01-25T14:12:27.486Z,100305.05
2019-01-25T14:17:30.206Z,100300.83
2019-01-25T14:22:32.869Z,100296.20
2019-01-25T14:27:35.467Z,100297.81
2019-01-25T14:32:38.149Z,100293.49
2019-01-25T14:37:40.706Z,100304.76
2019-01-25T14:42:43.200Z,100298.08
2019-01-25T14:47:45.729Z,100300.70
2019-01-25T14:52:49.414Z,100300.61
2019-01-25T14:57:52.370Z,100294.55
2019-01-25T15:02:54.989Z,100300.30
2019-01-25T15:07:57.430Z,100300.30
2019-01-25T15:12:59.926Z,100296.34
2019-01-25T15:18:02.594Z,100303.69
2019-01-25T15:23:05.176Z,100294.25
2019-01-25T15:28:07.764Z,100301.64
2019-01-25T15:33:10.250Z,100303.28
2019-01-25T15:38:12.769Z,100306.98
2019-01-25T15:43:15.382Z,100302.88
2019-01-25T15:48:17.989Z,100298.50
2019-01-25T15:53:20.590Z,100300.20
2019-01-25T15:58:23.119Z,100305.95
2019-01-25T16:03:25.740Z,100298.25
2019-01-25T16:08:28.546Z,100300.73
2019-01-25T16:13:31.190Z,100288.52
2019-01-25T16:18:33.821Z,100294.87
2019-01-25T16:23:36.365Z,100297.34
2019-01-25T16:28:39.044Z,100299.32
2019-01-25T16:33:41.539Z,100297.78
2019-01-25T16:38:44.018Z,100302.75
2019-01-25T16:43:46.795Z,100300.88
2019-01-25T16:48:49.434Z,100303.62
2019-01-25T16:53:52.078Z,100301.97
2019-01-25T16:58:54.653Z,100309.19
2019-01-25T17:03:57.327Z,100311.86
2019-01-25T17:09:01.566Z,100314.67
2019-01-25T17:14:04.494Z,100309.70
2019-01-25T17:19:07.067Z,100306.92
2019-01-25T17:24:09.640Z,100305.19
2019-01-25T17:29:12.185Z,100303.73
2019-01-25T17:34:14.867Z,100301.56
2019-01-25T17:39:17.805Z,100295.56
2019-01-25T17:44:20.509Z,100300.05
2019-01-25T17:49:23.159Z,100301.53
2019-01-25T17:54:26.080Z,100315.13
2019-01-25T17:59:28.688Z,100309.94
2019-01-25T18:04:31.454Z,100307.97
2019-01-25T18:09:34.129Z,100314.52
2019-01-25T18:14:36.718Z,100317.12
2019-01-25T18:19:39.499Z,100313.97
2019-01-25T18:24:42.458Z,100302.80
2019-01-25T18:29:49.542Z,100303.72
2019-01-25T18:34:52.262Z,100301.72
2019-01-25T18:39:54.895Z,100293.50
2019-01-25T18:44:57.469Z,100289.16
2019-01-25T18:50:00.192Z,100283.20
2019-01-25T18:55:04.932Z,100272.41
2019-01-25T19:00:11.598Z,100266.59
2019-01-25T19:05:14.519Z,100265.66
2019-01-25T19:10:19.763Z,100259.59
2019-01-25T19:15:25.206Z,100262.94
2019-01-25T19:20:28.116Z,100275.66
2019-01-25T19:25:30.711Z,100270.25
2019-01-25T19:30:36.199Z,100266.73
2019-01-25T19:35:38.809Z,100261.36
2019-01-25T19:40:41.489Z,100262.48
2019-01-25T19:45:44.034Z,100262.14
2019-01-25T19:50:46.690Z,100262.52
2019-01-25T19:55:49.419Z,100256.55
2019-01-25T20:00:52.045Z,100258.45
2019-01-25T20:05:54.675Z,100253.82
2019-01-25T20:10:57.495Z,100252.80
2019-01-25T20:16:00.074Z,100254.06
2019-01-25T20:21:03.611Z,100246.11
2019-01-25T20:26:06.360Z,100246.31
2019-01-25T20:31:08.955Z,100241.39
2019-01-25T20:36:11.519Z,100244.12
2019-01-25T20:41:14.094Z,100245.02
2019-01-25T20:46:16.509Z,100239.25
2019-01-25T20:51:19.118Z,100237.37
2019-01-25T20:56:21.708Z,100227.98
2019-01-25T21:01:24.348Z,100230.27
2019-01-25T21:06:26.904Z,100227.03
2019-01-25T21:11:29.385Z,100236.45
2019-01-25T21:16:31.889Z,100230.44
2019-01-25T21:21:34.530Z,100235.59
2019-01-25T21:26:37.169Z,100234.81
2019-01-25T21:31:39.679Z,100231.22
2019-01-25T21:36:42.209Z,100231.56
2019-01-25T21:41:44.775Z,100233.47
2019-01-25T21:46:48.350Z,100232.05
2019-01-25T21:51:51.118Z,100230.69
2019-01-25T21:56:54.563Z,100224.06
2019-01-25T22:01:57.042Z,100230.91
2019-01-25T22:06:59.690Z,100231.61
2019-01-25T22:12:02.393Z,100229.20
2019-01-25T22:17:05.078Z,100227.09
2019-01-25T22:22:07.763Z,100225.66
2019-01-25T22:27:10.428Z,100215.94
2019-01-25T22:32:12.967Z,100215.66
2019-01-25T22:37:15.521Z,100207.41
2019-01-25T22:42:18.077Z,100213.03
2019-01-25T22:47:20.762Z,100206.89
2019-01-25T22:52:23.310Z,100201.66
2019-01-25T22:57:27.006Z,100195.97
2019-01-25T23:02:29.647Z,100201.09
2019-01-25T23:07:33.115Z,100194.70
2019-01-25T23:12:36.111Z,100190.16
2019-01-25T23:17:38.526Z,100180.66
2019-01-25T23:22:41.074Z,100178.06
2019-01-25T23:27:43.708Z,100170.28
2019-01-25T23:32:46.310Z,100163.77
2019-01-25T23:37:48.905Z,100158.05
2019-01-25T23:42:51.684Z,100147.02
2019-01-25T23:47:54.154Z,100144.59
2019-01-25T23:52:56.694Z,100145.17
2019-01-25T23:57:59.439Z,100136.89
